createdAt,value
2022-08-16T00:02:30.465Z,72.52
2022-08-16T00:05:00.116Z,73.05
2022-08-16T00:07:30.346Z,73.11
2022-08-16T00:10:00.438Z,73.75
2022-08-16T00:12:29.495Z,74.18
2022-08-16T00:14:58.792Z,75.69
2022-08-16T00:17:26.450Z,76.21
2022-08-16T00:19:55.668Z,76.12
2022-08-16T00:22:24.850Z,76.83
2022-08-16T00:24:53.458Z,76.52
2022-08-16T00:27:21.132Z,77.63
2022-08-16T00:29:48.352Z,77.24
2022-08-16T00:32:28.341Z,77.84
2022-08-16T00:35:00.467Z,77.89
2022-08-16T00:37:58.612Z,77.69
2022-08-16T00:40:34.450Z,78.13
2022-08-16T00:43:12.062Z,78.25
2022-08-16T00:46:33.239Z,77.40
2022-08-16T00:49:17.490Z,78.32
2022-08-16T00:51:54.874Z,79.08
2022-08-16T00:54:24.826Z,80.25
2022-08-16T00:56:57.948Z,80.32
2022-08-16T00:59:29.053Z,80.73
2022-08-16T01:01:56.312Z,81.17
2022-08-16T01:04:29.957Z,81.24
2022-08-16T01:07:01.101Z,83.05
2022-08-16T01:09:33.442Z,83.76
2022-08-16T01:12:03.338Z,83.83
2022-08-16T01:14:34.898Z,84.72
2022-08-16T01:17:03.391Z,85.79
2022-08-16T01:19:48.386Z,85.85
2022-08-16T01:22:52.787Z,88.44
2022-08-16T01:25:34.416Z,91.13
2022-08-16T01:28:07.056Z,91.72
2022-08-16T01:30:40.016Z,92.57
2022-08-16T01:33:19.183Z,92.94
2022-08-16T01:35:52.523Z,93.30
2022-08-16T01:38:30.822Z,92.39
2022-08-16T01:41:19.190Z,92.10
2022-08-16T01:43:53.749Z,91.86
2022-08-16T01:46:39.388Z,91.92
2022-08-16T01:49:11.686Z,93.13
2022-08-16T01:51:40.401Z,94.49
2022-08-16T01:54:07.976Z,93.33
2022-08-16T01:56:35.865Z,95.26
2022-08-16T01:59:16.041Z,97.68
2022-08-16T02:01:52.850Z,100.00
2022-08-16T02:04:49.371Z,100.00
2022-08-16T02:07:13.899Z,100.00
2022-08-16T02:09:41.294Z,100.00
2022-08-16T02:12:49.981Z,100.00
2022-08-16T02:14:57.056Z,100.00
2022-08-16T02:17:26.308Z,100.00
2022-08-16T02:20:00.178Z,100.00
2022-08-16T02:22:33.768Z,100.00
2022-08-16T02:25:04.952Z,100.00
2022-08-16T02:27:32.356Z,100.00
2022-08-16T02:30:05.035Z,100.00
2022-08-16T02:32:50.997Z,100.00
2022-08-16T02:35:22.913Z,100.00
2022-08-16T02:37:52.324Z,100.00
2022-08-16T02:40:22.055Z,100.00
2022-08-16T02:42:50.649Z,100.00
2022-08-16T02:45:20.291Z,100.00
2022-08-16T02:48:00.252Z,100.00
2022-08-16T02:50:53.750Z,100.00
2022-08-16T02:53:18.335Z,100.00
2022-08-16T02:55:50.518Z,100.00
2022-08-16T02:58:17.970Z,100.00
2022-08-16T03:00:45.645Z,100.00
2022-08-16T03:03:18.039Z,100.00
2022-08-16T03:05:52.238Z,100.00
2022-08-16T03:08:50.762Z,100.00
2022-08-16T03:11:16.730Z,100.00
2022-08-16T03:13:51.580Z,100.00
2022-08-16T03:16:38.470Z,100.00
2022-08-16T03:19:08.262Z,100.00
2022-08-16T03:21:38.043Z,100.00
2022-08-16T03:24:28.942Z,100.00
2022-08-16T03:26:59.573Z,100.00
2022-08-16T03:29:33.728Z,100.00
2022-08-16T03:32:01.962Z,100.00
2022-08-16T03:34:29.994Z,100.00
2022-08-16T03:36:57.231Z,100.00
2022-08-16T03:39:23.952Z,100.00
2022-08-16T03:41:59.223Z,100.00
2022-08-16T03:44:43.515Z,100.00
2022-08-16T03:47:19.143Z,100.00
2022-08-16T03:49:51.560Z,100.00
2022-08-16T03:52:20.388Z,100.00
2022-08-16T03:54:57.812Z,100.00
2022-08-16T03:57:31.798Z,100.00
2022-08-16T04:00:20.683Z,100.00
2022-08-16T04:03:07.040Z,100.00
2022-08-16T04:05:36.308Z,100.00
2022-08-16T04:08:22.821Z,100.00
2022-08-16T04:10:52.959Z,100.00
2022-08-16T04:14:01.619Z,100.00
2022-08-16T04:16:07.924Z,100.00
2022-08-16T04:18:38.689Z,100.00
2022-08-16T04:21:06.123Z,100.00
2022-08-16T04:23:32.764Z,100.00
2022-08-16T04:26:02.124Z,100.00
2022-08-16T04:28:55.919Z,100.00
2022-08-16T04:31:15.772Z,100.00
2022-08-16T04:33:51.060Z,100.00
2022-08-16T04:36:20.076Z,100.00
2022-08-16T04:38:47.194Z,100.00
2022-08-16T04:41:17.607Z,100.00
2022-08-16T04:43:44.629Z,100.00
2022-08-16T04:46:19.989Z,98.36
2022-08-16T04:49:03.472Z,94.92
2022-08-16T04:51:36.101Z,94.06
2022-08-16T04:54:03.442Z,95.37
2022-08-16T04:56:31.025Z,92.07
2022-08-16T04:58:58.075Z,84.28
2022-08-16T05:01:47.803Z,76.82
2022-08-16T05:04:19.368Z,66.51
2022-08-16T05:06:46.714Z,63.70
2022-08-16T05:09:14.449Z,65.18
2022-08-16T05:11:43.034Z,67.79
2022-08-16T05:14:09.845Z,64.20
2022-08-16T05:16:36.524Z,62.76
2022-08-16T05:19:04.885Z,56.58
2022-08-16T05:21:36.009Z,53.90
2022-08-16T05:24:07.107Z,53.63
2022-08-16T05:26:34.095Z,53.47
2022-08-16T05:29:03.732Z,53.60
2022-08-16T05:31:31.730Z,50.28
2022-08-16T05:34:03.737Z,50.77
2022-08-16T05:36:34.077Z,52.49
2022-08-16T05:39:08.829Z,57.34
2022-08-16T05:41:45.004Z,61.55
2022-08-16T05:44:24.107Z,65.57
2022-08-16T05:46:57.419Z,70.09
2022-08-16T05:49:39.490Z,73.48
2022-08-16T05:52:11.203Z,78.12
2022-08-16T05:54:46.539Z,75.47
2022-08-16T05:57:15.084Z,81.32
2022-08-16T05:59:41.718Z,81.26
2022-08-16T06:02:08.289Z,82.06
2022-08-16T06:04:37.228Z,83.08
2022-08-16T06:07:08.246Z,84.80
2022-08-16T06:09:43.476Z,84.14
2022-08-16T06:12:27.337Z,85.39
2022-08-16T06:14:59.486Z,86.47
2022-08-16T06:17:42.254Z,84.63
2022-08-16T06:20:14.845Z,86.55
2022-08-16T06:22:47.892Z,86.68
2022-08-16T06:25:35.583Z,86.86
2022-08-16T06:28:08.816Z,86.75
2022-08-16T06:30:36.232Z,84.90
2022-08-16T06:33:12.463Z,84.04
2022-08-16T06:35:41.443Z,85.00
2022-08-16T06:38:31.976Z,83.02
2022-08-16T06:40:55.539Z,85.82
2022-08-16T06:43:22.308Z,81.55
2022-08-16T06:45:54.690Z,82.11
2022-08-16T06:48:32.284Z,81.12
2022-08-16T06:51:01.605Z,81.79
2022-08-16T06:53:29.657Z,79.61
2022-08-16T06:55:58.950Z,80.25
2022-08-16T06:58:31.676Z,78.19
2022-08-16T07:01:00.199Z,81.89
2022-08-16T07:03:32.511Z,79.47
2022-08-16T07:05:59.865Z,81.58
2022-08-16T07:08:27.944Z,80.58
2022-08-16T07:10:56.513Z,80.63
2022-08-16T07:13:53.135Z,80.23
2022-08-16T07:16:15.301Z,80.38
2022-08-16T07:19:01.412Z,81.31
2022-08-16T07:21:46.271Z,80.71
2022-08-16T07:24:30.375Z,80.02
2022-08-16T07:26:59.039Z,75.12
2022-08-16T07:29:27.895Z,76.66
2022-08-16T07:31:59.579Z,77.49
2022-08-16T07:34:35.384Z,74.70
2022-08-16T07:37:12.047Z,77.40
2022-08-16T07:39:43.306Z,75.41
2022-08-16T07:42:10.943Z,75.19
2022-08-16T07:44:52.629Z,72.86
2022-08-16T07:47:19.390Z,73.37
2022-08-16T07:49:53.240Z,70.48
2022-08-16T07:52:25.208Z,69.48
2022-08-16T07:54:57.263Z,63.17
2022-08-16T07:57:24.614Z,57.57
2022-08-16T07:59:51.911Z,53.15
2022-08-16T08:02:19.690Z,49.83
2022-08-16T08:04:47.711Z,48.88
2022-08-16T08:07:16.107Z,47.31
2022-08-16T08:09:43.924Z,46.28
2022-08-16T08:12:32.447Z,43.08
2022-08-16T08:14:58.296Z,37.48
2022-08-16T08:17:25.286Z,36.56
2022-08-16T08:20:12.805Z,34.12
2022-08-16T08:22:49.379Z,32.19
2022-08-16T08:25:16.368Z,28.55
2022-08-16T08:27:44.203Z,31.92
2022-08-16T08:31:00.795Z,27.77
2022-08-16T08:33:02.336Z,29.57
2022-08-16T08:35:29.803Z,30.02
2022-08-16T08:37:56.727Z,29.46
2022-08-16T08:40:26.758Z,25.81
2022-08-16T08:43:00.159Z,28.30
2022-08-16T08:45:45.305Z,25.35
2022-08-16T08:48:34.189Z,24.89
2022-08-16T08:51:10.189Z,24.71
2022-08-16T08:53:38.233Z,26.89
2022-08-16T08:56:23.174Z,26.51
2022-08-16T08:58:54.959Z,29.27
2022-08-16T09:01:36.479Z,26.32
2022-08-16T09:04:10.419Z,27.16
2022-08-16T09:06:43.718Z,25.84
2022-08-16T09:09:16.870Z,24.31
2022-08-16T09:11:47.254Z,23.69
2022-08-16T09:14:24.647Z,22.07
2022-08-16T09:17:01.173Z,22.21
2022-08-16T09:19:31.991Z,21.13
2022-08-16T09:22:01.009Z,24.65
2022-08-16T09:24:52.008Z,22.53
2022-08-16T09:27:14.885Z,22.71
2022-08-16T09:29:45.266Z,21.85
2022-08-16T09:32:12.770Z,22.27
2022-08-16T09:34:58.623Z,23.42
2022-08-16T09:37:29.398Z,21.73
2022-08-16T09:39:59.706Z,21.68
2022-08-16T09:42:30.700Z,26.52
2022-08-16T09:45:18.400Z,22.28
2022-08-16T09:47:56.215Z,23.27
2022-08-16T09:50:26.287Z,21.17
2022-08-16T09:53:05.176Z,23.54
2022-08-16T09:55:33.418Z,21.36
2022-08-16T09:58:12.312Z,20.80
2022-08-16T10:00:57.790Z,22.08
2022-08-16T10:03:29.568Z,21.85
2022-08-16T10:05:57.657Z,21.65
2022-08-16T10:08:25.903Z,22.95
2022-08-16T10:11:12.031Z,20.42
2022-08-16T10:13:39.535Z,22.89
2022-08-16T10:19:00.144Z,22.25
2022-08-16T10:21:23.843Z,22.89
2022-08-16T10:23:53.666Z,22.43
2022-08-16T10:27:00.583Z,22.51
2022-08-16T10:29:08.571Z,21.59
2022-08-16T10:31:45.417Z,20.42
2022-08-16T10:34:31.982Z,21.04
2022-08-16T10:37:01.952Z,21.67
2022-08-16T10:39:41.107Z,21.61
2022-08-16T10:42:13.271Z,21.39
2022-08-16T10:44:40.672Z,23.00
2022-08-16T10:47:10.028Z,20.68
2022-08-16T10:49:39.061Z,20.74
2022-08-16T10:52:18.109Z,21.46
2022-08-16T10:57:32.998Z,22.33
2022-08-16T11:00:00.017Z,22.35
2022-08-16T11:03:37.750Z,21.18
2022-08-16T11:05:16.818Z,19.66
2022-08-16T11:07:52.371Z,21.63
2022-08-16T11:17:00.949Z,18.28
2022-08-16T11:19:06.483Z,21.84
2022-08-16T11:22:38.944Z,20.55
2022-08-16T11:24:40.189Z,20.88
2022-08-16T11:27:19.640Z,20.93
2022-08-16T11:29:49.361Z,23.30
2022-08-16T11:32:20.314Z,20.94
2022-08-16T11:35:10.509Z,20.37
2022-08-16T11:40:32.351Z,21.28
2022-08-16T11:43:01.461Z,21.31
2022-08-16T11:45:33.737Z,20.10
2022-08-16T11:48:03.257Z,20.71
2022-08-16T11:50:33.541Z,20.19
2022-08-16T11:53:03.611Z,23.04
2022-08-16T11:55:31.941Z,19.84
2022-08-16T11:58:00.363Z,20.91
2022-08-16T12:00:33.729Z,21.14
2022-08-16T12:03:16.323Z,22.66
2022-08-16T12:05:45.223Z,22.09
2022-08-16T12:08:12.892Z,21.59
2022-08-16T12:10:40.744Z,20.89
2022-08-16T12:13:10.803Z,20.78
2022-08-16T12:15:37.968Z,21.20
2022-08-16T12:18:05.470Z,20.26
2022-08-16T12:20:36.575Z,22.69
2022-08-16T12:23:03.850Z,22.44
2022-08-16T12:25:32.689Z,21.53
2022-08-16T12:28:02.875Z,21.42
2022-08-16T12:30:36.362Z,22.81
2022-08-16T12:33:06.911Z,20.94
2022-08-16T12:35:35.655Z,22.62
2022-08-16T12:38:38.133Z,21.45
2022-08-16T12:40:50.944Z,24.58
2022-08-16T12:43:23.478Z,23.41
2022-08-16T12:45:53.635Z,22.67
2022-08-16T12:48:42.353Z,23.34
2022-08-16T12:51:20.065Z,22.85
2022-08-16T12:53:52.750Z,23.50
2022-08-16T12:56:21.655Z,23.28
2022-08-16T12:58:52.503Z,23.00
2022-08-16T13:01:26.766Z,23.38
2022-08-16T13:04:20.317Z,23.04
2022-08-16T13:06:45.378Z,23.43
2022-08-16T13:09:31.883Z,22.04
2022-08-16T13:12:19.206Z,21.20
2022-08-16T13:14:47.375Z,19.28
2022-08-16T13:17:29.806Z,22.37
2022-08-16T13:20:07.631Z,22.01
2022-08-16T13:22:41.385Z,21.21
2022-08-16T13:25:10.143Z,22.18
2022-08-16T13:28:15.034Z,23.01
2022-08-16T13:30:37.540Z,22.18
2022-08-16T13:33:12.694Z,24.00
2022-08-16T13:35:43.902Z,24.27
2022-08-16T13:38:24.383Z,23.08
2022-08-16T13:40:56.807Z,22.75
2022-08-16T13:43:26.710Z,24.07
2022-08-16T13:45:55.435Z,26.19
2022-08-16T13:48:25.268Z,24.56
2022-08-16T13:50:58.029Z,24.51
2022-08-16T13:53:29.234Z,25.16
2022-08-16T13:55:57.935Z,25.36
2022-08-16T13:58:36.480Z,27.27
2022-08-16T14:01:09.969Z,27.46
2022-08-16T14:03:40.363Z,27.12
2022-08-16T14:06:10.559Z,28.26
2022-08-16T14:08:42.020Z,28.38
2022-08-16T14:11:11.991Z,28.79
2022-08-16T14:13:40.181Z,26.30
2022-08-16T14:16:12.470Z,27.88
2022-08-16T14:18:52.611Z,28.26
2022-08-16T14:21:19.571Z,26.44
2022-08-16T14:23:49.102Z,26.61
2022-08-16T14:26:15.657Z,27.25
2022-08-16T14:28:42.736Z,27.22
2022-08-16T14:31:09.578Z,27.21
2022-08-16T14:33:36.383Z,27.61
2022-08-16T14:36:03.226Z,28.87
2022-08-16T14:38:39.300Z,28.36
2022-08-16T14:41:10.135Z,28.23
2022-08-16T14:43:37.167Z,27.39
2022-08-16T14:46:07.564Z,29.61
2022-08-16T14:48:34.692Z,28.13
2022-08-16T14:51:01.583Z,27.71
2022-08-16T14:53:29.236Z,28.97
2022-08-16T14:56:00.116Z,27.78
2022-08-16T14:58:34.518Z,28.06
2022-08-16T15:01:03.619Z,27.66
2022-08-16T15:03:30.325Z,28.30
2022-08-16T15:06:00.490Z,28.72
2022-08-16T15:08:34.096Z,28.84
2022-08-16T15:11:04.956Z,28.75
2022-08-16T15:13:31.507Z,29.25
2022-08-16T15:16:02.454Z,29.63
2022-08-16T15:18:31.958Z,28.38
2022-08-16T15:20:59.239Z,28.95
2022-08-16T15:23:25.806Z,29.07
2022-08-16T15:26:03.722Z,29.41
2022-08-16T15:28:32.665Z,28.95
2022-08-16T15:31:04.657Z,29.68
2022-08-16T15:33:44.443Z,29.85
2022-08-16T15:36:18.036Z,30.84
2022-08-16T15:39:02.553Z,30.75
2022-08-16T15:41:44.201Z,30.63
2022-08-16T15:44:22.300Z,30.89
2022-08-16T15:46:56.745Z,30.46
2022-08-16T15:49:37.961Z,30.28
2022-08-16T15:52:29.809Z,30.81
2022-08-16T15:54:58.000Z,30.62
2022-08-16T15:57:27.028Z,31.46
2022-08-16T15:59:55.881Z,31.09
2022-08-16T16:02:32.018Z,31.87
2022-08-16T16:05:04.721Z,31.00
2022-08-16T16:07:33.485Z,31.30
2022-08-16T16:10:05.121Z,31.12
2022-08-16T16:12:53.237Z,31.59
2022-08-16T16:15:29.353Z,31.74
2022-08-16T16:17:56.959Z,31.54
2022-08-16T16:20:27.156Z,31.34
2022-08-16T16:22:57.194Z,31.52
2022-08-16T16:25:24.801Z,31.45
2022-08-16T16:27:55.827Z,31.64
2022-08-16T16:30:38.000Z,31.37
2022-08-16T16:33:15.650Z,31.19
2022-08-16T16:35:55.354Z,31.68
2022-08-16T16:38:30.442Z,32.68
2022-08-16T16:40:58.723Z,33.38
2022-08-16T16:43:31.720Z,33.06
2022-08-16T16:46:00.659Z,32.52
2022-08-16T16:48:35.091Z,32.60
2022-08-16T16:51:09.553Z,33.05
2022-08-16T16:53:41.044Z,33.39
2022-08-16T16:56:10.362Z,34.07
2022-08-16T16:59:02.181Z,34.11
2022-08-16T17:01:35.194Z,33.34
2022-08-16T17:04:27.436Z,33.72
2022-08-16T17:06:58.936Z,33.84
2022-08-16T17:09:51.875Z,34.36
2022-08-16T17:12:46.328Z,34.88
2022-08-16T17:15:11.520Z,34.65
2022-08-16T17:17:58.953Z,35.11
2022-08-16T17:20:26.564Z,35.41
2022-08-16T17:22:55.269Z,35.80
2022-08-16T17:25:24.002Z,35.70
2022-08-16T17:27:51.677Z,35.84
2022-08-16T17:30:22.293Z,36.06
2022-08-16T17:33:01.220Z,36.10
2022-08-16T17:35:34.679Z,35.86
2022-08-16T17:38:06.840Z,36.41
2022-08-16T17:40:46.997Z,36.62
2022-08-16T17:43:29.583Z,36.97
2022-08-16T17:45:56.754Z,37.42
2022-08-16T17:48:23.601Z,37.68
2022-08-16T17:50:54.811Z,38.22
2022-08-16T17:53:21.775Z,38.31
2022-08-16T17:55:50.417Z,39.03
2022-08-16T17:58:22.242Z,39.60
2022-08-16T18:00:52.686Z,40.45
2022-08-16T18:03:40.796Z,41.06
2022-08-16T18:06:23.174Z,41.67
2022-08-16T18:08:55.902Z,42.44
2022-08-16T18:11:27.465Z,42.95
2022-08-16T18:13:55.083Z,43.69
2022-08-16T18:16:21.841Z,44.30
2022-08-16T18:18:48.459Z,46.35
2022-08-16T18:21:33.729Z,47.71
2022-08-16T18:24:00.724Z,49.58
2022-08-16T18:26:27.341Z,50.13
2022-08-16T18:28:54.060Z,51.21
2022-08-16T18:31:20.652Z,52.29
2022-08-16T18:33:47.235Z,53.92
2022-08-16T18:36:21.136Z,54.32
2022-08-16T18:38:49.623Z,55.34
2022-08-16T18:41:17.580Z,55.38
2022-08-16T18:43:58.839Z,56.29
2022-08-16T18:46:30.889Z,56.76
2022-08-16T18:48:57.403Z,57.89
2022-08-16T18:51:25.499Z,58.35
2022-08-16T18:53:52.400Z,59.88
2022-08-16T18:56:19.029Z,58.63
2022-08-16T18:58:45.562Z,60.90
2022-08-16T19:01:12.164Z,61.90
2022-08-16T19:03:38.702Z,62.45
2022-08-16T19:06:11.303Z,62.99
2022-08-16T19:08:40.164Z,64.76
2022-08-16T19:11:11.466Z,64.21
2022-08-16T19:13:40.295Z,66.03
2022-08-16T19:16:07.549Z,66.18
2022-08-16T19:18:36.328Z,65.29
2022-08-16T19:21:05.434Z,67.05
2022-08-16T19:23:35.885Z,67.11
2022-08-16T19:26:07.848Z,67.97
2022-08-16T19:28:58.468Z,68.92
2022-08-16T19:31:30.120Z,69.45
2022-08-16T19:33:57.644Z,70.65
2022-08-16T19:36:31.730Z,69.08
2022-08-16T19:39:09.285Z,70.05
2022-08-16T19:41:37.915Z,69.74
2022-08-16T19:44:05.953Z,70.74
2022-08-16T19:46:32.981Z,72.56
2022-08-16T19:48:59.691Z,73.03
2022-08-16T19:51:26.351Z,73.28
2022-08-16T19:53:52.911Z,73.92
2022-08-16T19:56:21.587Z,73.80
2022-08-16T19:59:17.047Z,74.36
2022-08-16T20:01:41.132Z,74.40
2022-08-16T20:04:11.871Z,74.81
2022-08-16T20:06:39.074Z,76.46
2022-08-16T20:09:06.535Z,77.25
2022-08-16T20:11:34.811Z,78.69
2022-08-16T20:14:01.747Z,80.87
2022-08-16T20:16:28.330Z,81.58
2022-08-16T20:18:54.927Z,81.79
2022-08-16T20:21:21.522Z,81.63
2022-08-16T20:23:48.102Z,81.43
2022-08-16T20:26:14.665Z,82.11
2022-08-16T20:28:53.847Z,82.20
2022-08-16T20:31:25.039Z,81.41
2022-08-16T20:33:53.177Z,82.61
2022-08-16T20:36:19.967Z,82.29
2022-08-16T20:38:47.410Z,83.33
2022-08-16T20:41:14.976Z,84.57
2022-08-16T20:43:41.621Z,83.99
2022-08-16T20:46:50.883Z,85.63
2022-08-16T20:56:37.593Z,84.24
2022-08-16T21:13:25.770Z,87.10
2022-08-16T21:23:13.244Z,89.54
2022-08-16T21:25:52.765Z,89.20
2022-08-16T21:28:39.402Z,88.42
2022-08-16T21:31:12.767Z,89.29
2022-08-16T21:33:39.497Z,89.21
2022-08-16T21:36:06.410Z,89.67
2022-08-16T21:38:32.952Z,90.76
2022-08-16T21:40:59.947Z,90.71
2022-08-16T21:43:32.265Z,91.84
2022-08-16T21:46:03.394Z,92.07
2022-08-16T21:48:33.975Z,92.75
2022-08-16T21:51:04.845Z,92.88
2022-08-16T21:53:31.511Z,92.66
2022-08-16T21:55:59.535Z,93.10
2022-08-16T21:58:26.333Z,93.79
2022-08-16T22:00:53.041Z,94.32
2022-08-16T22:03:19.935Z,96.06
2022-08-16T22:06:13.456Z,96.95
2022-08-16T22:08:35.849Z,97.48
2022-08-16T22:11:17.284Z,98.30
2022-08-16T22:13:51.297Z,98.14
2022-08-16T22:16:34.234Z,99.15
2022-08-16T22:19:01.900Z,99.18
2022-08-16T22:21:29.534Z,97.98
2022-08-16T22:23:58.457Z,98.32
2022-08-16T22:26:31.696Z,98.48
2022-08-16T22:29:00.826Z,98.02
2022-08-16T22:31:27.531Z,98.22
2022-08-16T22:33:55.948Z,99.68
2022-08-16T22:36:22.651Z,99.86
2022-08-16T22:38:56.285Z,99.80
2022-08-16T22:41:24.763Z,100.00
2022-08-16T22:43:51.821Z,100.00
2022-08-16T22:46:19.463Z,100.00
2022-08-16T22:48:46.398Z,100.00
2022-08-16T22:51:13.102Z,100.00
2022-08-16T22:53:39.805Z,100.00
2022-08-16T22:56:06.632Z,100.00
2022-08-16T22:58:36.190Z,100.00
2022-08-16T23:01:05.839Z,100.00
2022-08-16T23:03:33.472Z,100.00
2022-08-16T23:06:00.782Z,100.00
2022-08-16T23:08:38.031Z,100.00
2022-08-16T23:11:06.594Z,100.00
2022-08-16T23:13:33.103Z,100.00
2022-08-16T23:16:10.722Z,100.00
2022-08-16T23:18:37.613Z,100.00
2022-08-16T23:21:08.697Z,100.00
2022-08-16T23:23:36.006Z,100.00
2022-08-16T23:26:03.205Z,100.00
2022-08-16T23:28:49.811Z,100.00
2022-08-16T23:31:16.691Z,100.00
2022-08-16T23:33:43.285Z,100.00
2022-08-16T23:36:10.546Z,100.00
2022-08-16T23:38:39.535Z,100.00
2022-08-16T23:41:11.321Z,100.00
2022-08-16T23:43:43.086Z,100.00
2022-08-16T23:46:16.849Z,100.00
2022-08-16T23:50:01.795Z,100.00
2022-08-16T23:51:31.072Z,100.00
2022-08-16T23:53:57.749Z,100.00
2022-08-16T23:56:25.705Z,100.00
2022-08-16T23:59:02.393Z,100.00
